Time;durP1;ratioP1;P1;durP2;ratioP2;P2;SDS_P1;SDS_P2;PMS_P1;PMS_P2;Temp;Humidity;BMP_temperature;BMP_pressure;BME280_temperature;BME280_humidity;BME280_pressure;Samples;Min_cycle;Max_cycle;Signal;HPM_P1;HPM_P2
2022/09/30 00:00:21;;;;;;;13.27;9.65;;;;;;;5.06;90.60;100701.66;4932357;29;20039;-74
2022/09/30 00:02:47;;;;;;;15.48;9.82;;;;;;;5.01;90.89;100709.13;4914165;29;20150;-74
2022/09/30 00:05:13;;;;;;;12.55;9.48;;;;;;;4.98;90.71;100704.72;4929407;29;20638;-73
2022/09/30 00:07:38;;;;;;;15.57;10.43;;;;;;;4.99;90.35;100706.50;4932354;29;20044;-74
2022/09/30 00:10:06;;;;;;;13.98;9.27;;;;;;;5.00;90.50;100715.47;4930862;29;20376;-74
2022/09/30 00:12:31;;;;;;;17.50;10.52;;;;;;;4.98;90.64;100712.81;4930861;29;20036;-73
2022/09/30 00:14:56;;;;;;;14.95;10.82;;;;;;;4.98;90.65;100715.50;4931486;29;20047;-74
2022/09/30 00:17:22;;;;;;;16.05;10.10;;;;;;;4.97;90.45;100712.91;4930644;29;20054;-74
2022/09/30 00:19:47;;;;;;;15.05;10.88;;;;;;;4.92;90.46;100715.84;4925864;29;20043;-73
2022/09/30 00:22:13;;;;;;;15.52;10.93;;;;;;;4.92;90.34;100715.84;4932430;29;20139;-74
2022/09/30 00:24:38;;;;;;;15.80;10.85;;;;;;;4.91;90.52;100719.50;4930735;29;20247;-74
2022/09/30 00:27:04;;;;;;;15.68;10.90;;;;;;;4.90;90.57;100716.88;4921567;29;20043;-74
2022/09/30 00:29:29;;;;;;;14.07;9.95;;;;;;;4.84;90.59;100708.13;4913029;29;20487;-74
2022/09/30 00:31:54;;;;;;;15.82;11.00;;;;;;;4.80;91.09;100716.44;4912925;29;20044;-74
2022/09/30 00:34:20;;;;;;;14.13;9.98;;;;;;;4.76;90.69;100721.16;4927664;29;20043;-74
2022/09/30 00:36:52;;;;;;;13.52;9.18;;;;;;;4.76;90.70;100713.06;4931914;29;20040;-74
2022/09/30 00:39:20;;;;;;;12.90;9.77;;;;;;;4.76;90.72;100713.06;4931895;29;20451;-74
2022/09/30 00:41:49;;;;;;;11.70;9.18;;;;;;;4.76;90.36;100715.75;4917948;29;20036;-74
2022/09/30 00:44:50;;;;;;;14.57;9.43;;;;;;;4.75;90.49;100722.06;4913356;29;20142;-74
2022/09/30 00:47:25;;;;;;;12.82;9.02;;;;;;;4.72;90.59;100708.78;4935261;29;20047;-74
2022/09/30 00:49:51;;;;;;;12.18;9.27;;;;;;;4.71;90.83;100706.13;4926976;29;20444;-74
2022/09/30 00:52:18;;;;;;;12.38;9.63;;;;;;;4.69;90.75;100708.06;4912834;29;20028;-74
2022/09/30 00:54:44;;;;;;;15.95;9.68;;;;;;;4.69;90.67;100710.75;4913426;29;20036;-74
2022/09/30 00:57:10;;;;;;;11.05;8.88;;;;;;;4.68;90.72;100720.66;4929063;29;20055;-74
2022/09/30 00:59:44;;;;;;;11.13;8.10;;;;;;;4.65;90.40;100723.50;4931608;29;20110;-74
2022/09/30 01:02:11;;;;;;;14.32;7.90;;;;;;;4.61;90.40;100717.38;4931236;29;20043;-74
2022/09/30 01:04:37;;;;;;;9.90;7.80;;;;;;;4.62;90.82;100715.59;4913949;29;20485;-73
2022/09/30 01:07:05;;;;;;;13.88;8.63;;;;;;;4.57;90.82;100717.63;4917964;29;20042;-74
2022/09/30 01:09:33;;;;;;;19.95;8.40;;;;;;;4.57;90.57;100723.03;4931551;29;20138;-74
2022/09/30 01:12:02;;;;;;;9.40;7.30;;;;;;;4.56;90.48;100726.66;4930171;29;20487;-73
2022/09/30 01:14:28;;;;;;;9.05;7.93;;;;;;;4.54;90.63;100723.16;4919212;29;20032;-74
2022/09/30 01:17:05;;;;;;;12.30;7.22;;;;;;;4.48;90.73;100720.78;4912439;29;20432;-73
2022/09/30 01:20:14;;;;;;;12.13;8.30;;;;;;;4.49;90.96;100726.09;4894839;29;20130;-74
2022/09/30 01:22:58;;;;;;;12.38;8.65;;;;;;;4.46;91.03;100717.28;4911393;29;20039;-74
2022/09/30 01:25:41;;;;;;;13.02;8.52;;;;;;;4.43;91.21;100715.63;4917372;29;20560;-74
2022/09/30 01:28:25;;;;;;;14.05;8.40;;;;;;;4.42;91.34;100719.25;4913488;29;20044;-74
2022/09/30 01:31:27;;;;;;;11.80;7.90;;;;;;;4.40;91.12;100721.16;4918937;29;20098;-74
2022/09/30 01:34:01;;;;;;;9.82;7.63;;;;;;;4.39;91.18;100722.09;4927755;29;20044;-73
2022/09/30 01:36:56;;;;;;;10.20;8.02;;;;;;;4.36;91.16;100727.63;4935522;29;20131;-73
2022/09/30 01:39:48;;;;;;;12.98;7.82;;;;;;;4.34;91.05;100721.47;4901575;29;20407;-73
2022/09/30 01:42:39;;;;;;;11.45;7.32;;;;;;;4.32;91.04;100728.72;4916298;29;20048;-73
2022/09/30 01:45:32;;;;;;;9.43;7.40;;;;;;;4.29;90.75;100721.69;4914621;29;20036;-74
2022/09/30 01:48:07;;;;;;;;;;;;;;;4.33;90.26;100728.63;4930476;29;20093;-74
2022/09/30 01:50:47;;;;;;;9.52;7.22;;;;;;;4.28;90.72;100722.59;4933681;29;19921;-74
2022/09/30 01:53:22;;;;;;;12.35;8.43;;;;;;;4.24;91.07;100721.03;4935157;29;20052;-74
2022/09/30 01:55:52;;;;;;;9.90;7.20;;;;;;;4.23;91.45;100721.97;4934114;29;20063;-74
2022/09/30 01:58:28;;;;;;;10.32;7.57;;;;;;;4.23;91.11;100721.09;4930356;29;20040;-73
2022/09/30 02:01:00;;;;;;;11.00;8.20;;;;;;;4.18;91.24;100721.31;4921815;29;20043;-74
2022/09/30 02:03:44;;;;;;;11.43;8.30;;;;;;;4.16;91.28;100728.59;4932429;29;20040;-73
2022/09/30 02:06:17;;;;;;;9.02;7.35;;;;;;;4.16;91.06;100725.03;4915683;29;20329;-74
2022/09/30 02:08:48;;;;;;;11.05;7.28;;;;;;;4.12;90.94;100735.06;4930136;29;20032;-74
2022/09/30 02:11:24;;;;;;;10.45;7.53;;;;;;;4.09;90.75;100732.50;4930442;29;20070;-74
2022/09/30 02:13:52;;;;;;;10.00;7.45;;;;;;;4.08;91.18;100736.16;4913520;29;20107;-74
2022/09/30 02:16:31;;;;;;;9.05;6.80;;;;;;;4.06;90.96;100743.44;4915463;29;20400;-76
2022/09/30 02:19:09;;;;;;;12.35;8.75;;;;;;;4.01;91.14;100727.50;4920962;29;20070;-74
2022/09/30 02:21:40;;;;;;;12.95;8.60;;;;;;;4.03;90.85;100732.81;4934289;29;20119;-74
2022/09/30 02:24:12;;;;;;;10.13;7.60;;;;;;;4.01;91.01;100734.69;4932275;29;20050;-74
2022/09/30 02:26:41;;;;;;;12.65;8.52;;;;;;;3.99;90.89;100734.78;4929224;29;20130;-74
2022/09/30 02:29:23;;;;;;;14.13;10.18;;;;;;;3.98;90.67;100733.03;4929752;29;20458;-74
2022/09/30 02:31:53;;;;;;;12.05;9.63;;;;;;;3.96;91.27;100740.28;4915531;29;20059;-73
2022/09/30 02:34:24;;;;;;;12.40;9.07;;;;;;;3.90;91.43;100731.63;4929390;29;20118;-74
2022/09/30 02:37:01;;;;;;;12.00;8.52;;;;;;;3.88;91.12;100726.34;4932753;29;20123;-73
2022/09/30 02:39:39;;;;;;;12.68;8.43;;;;;;;3.88;91.86;100726.34;4928085;29;20059;-74
2022/09/30 02:42:20;;;;;;;10.95;8.10;;;;;;;3.86;91.48;100722.84;4929545;29;20405;-74
2022/09/30 02:44:48;;;;;;;10.07;7.68;;;;;;;3.84;91.80;100722.03;4913797;29;20044;-74
2022/09/30 02:47:39;;;;;;;8.98;7.55;;;;;;;3.81;91.77;100717.66;4929241;29;20036;-74
2022/09/30 02:50:25;;;;;;;11.65;8.20;;;;;;;3.83;91.45;100728.38;4914334;29;20480;-73
2022/09/30 02:53:22;;;;;;;11.55;7.28;;;;;;;3.83;91.16;100733.75;4914865;29;20572;-74
2022/09/30 02:56:13;;;;;;;13.60;7.85;;;;;;;3.82;91.59;100723.91;4920859;29;20070;-74
2022/09/30 02:58:42;;;;;;;11.57;8.10;;;;;;;3.76;91.73;100718.81;4932047;29;20063;-74
2022/09/30 03:01:13;;;;;;;11.65;7.82;;;;;;;3.78;92.16;100722.34;4933440;29;20040;-74
2022/09/30 03:03:47;;;;;;;10.68;7.90;;;;;;;3.76;91.94;100725.06;4921524;29;20036;-73
2022/09/30 03:06:13;;;;;;;10.05;7.20;;;;;;;3.76;91.97;100726.91;4914952;29;20051;-73
2022/09/30 03:08:38;;;;;;;9.75;7.38;;;;;;;3.75;91.69;100730.53;4913120;29;20032;-74
2022/09/30 03:11:05;;;;;;;10.10;7.80;;;;;;;3.73;91.39;100729.72;4912986;29;20032;-73
2022/09/30 03:14:16;;;;;;;13.30;7.13;;;;;;;3.72;91.55;100734.22;4927942;29;20095;-73
2022/09/30 03:17:20;;;;;;;7.93;6.68;;;;;;;3.72;91.96;100736.06;4929258;29;20570;-74
2022/09/30 03:20:17;;;;;;;11.43;8.13;;;;;;;3.70;92.26;100733.44;4907230;29;20048;-73
2022/09/30 03:23:10;;;;;;;10.13;6.78;;;;;;;3.67;92.29;100740.78;4914545;29;20047;-74
2022/09/30 03:25:52;;;;;;;9.93;7.40;;;;;;;3.64;92.57;100741.81;4932848;29;20566;-73
2022/09/30 03:28:26;;;;;;;11.23;6.87;;;;;;;3.64;92.16;100739.13;4929115;29;20466;-74
2022/09/30 03:31:01;;;;;;;10.13;7.30;;;;;;;3.63;92.22;100740.03;4914077;29;20086;-74
2022/09/30 03:33:35;;;;;;;10.50;7.63;;;;;;;3.59;91.95;100735.75;4920895;29;20147;-74
2022/09/30 03:36:03;;;;;;;11.02;6.90;;;;;;;3.60;92.13;100740.19;4928400;29;20075;-74
2022/09/30 03:39:00;;;;;;;9.40;7.40;;;;;;;3.62;91.83;100732.91;4928180;29;20043;-73
2022/09/30 03:41:35;;;;;;;8.70;6.45;;;;;;;3.59;92.08;100730.38;4915852;29;20570;-73
2022/09/30 03:44:09;;;;;;;7.93;6.07;;;;;;;3.59;91.85;100735.75;4932032;29;20043;-74
2022/09/30 03:46:54;;;;;;;12.77;6.93;;;;;;;3.60;92.18;100740.19;4932889;29;20059;-74
2022/09/30 03:49:25;;;;;;;7.88;6.30;;;;;;;3.57;91.86;100753.78;4922183;29;20070;-73
2022/09/30 03:51:51;;;;;;;10.88;6.90;;;;;;;3.55;91.76;100745.78;4932572;29;20119;-73
2022/09/30 03:54:17;;;;;;;13.00;6.90;;;;;;;3.55;92.01;100756.53;4931114;29;20044;-73
2022/09/30 03:56:42;;;;;;;12.55;6.82;;;;;;;3.53;92.34;100758.41;4932506;29;20285;-73
2022/09/30 03:59:21;;;;;;;12.65;6.40;;;;;;;3.52;91.88;100758.47;4923182;29;20110;-74
2022/09/30 04:01:46;;;;;;;8.50;6.55;;;;;;;3.49;91.96;100767.53;4913440;29;20075;-73
2022/09/30 04:04:12;;;;;;;13.90;7.55;;;;;;;3.48;92.32;100773.00;4921222;29;20064;-74
2022/09/30 04:06:37;;;;;;;9.25;7.07;;;;;;;3.47;92.20;100773.94;4927991;29;20048;-74
2022/09/30 04:09:03;;;;;;;9.60;7.25;;;;;;;3.46;92.53;100769.53;4913175;29;20566;-73
2022/09/30 04:11:28;;;;;;;10.20;7.07;;;;;;;3.46;92.47;100774.91;4913406;29;20075;-74
2022/09/30 04:13:53;;;;;;;9.35;6.97;;;;;;;3.44;92.36;100777.63;4925342;29;20043;-74
2022/09/30 04:16:19;;;;;;;10.52;6.95;;;;;;;3.42;92.46;100786.72;4932296;29;20384;-73
2022/09/30 04:18:44;;;;;;;10.82;7.72;;;;;;;3.42;92.43;100787.59;4929243;29;20357;-74
2022/09/30 04:21:12;;;;;;;15.63;8.50;;;;;;;3.44;93.10;100804.53;4932087;29;20443;-74
2022/09/30 04:23:39;;;;;;;10.82;7.47;;;;;;;3.43;93.24;100802.78;4930739;29;20039;-74
2022/09/30 04:26:08;;;;;;;10.98;7.57;;;;;;;3.44;92.63;100812.59;4930577;29;20035;-74
2022/09/30 04:28:34;;;;;;;14.07;8.10;;;;;;;3.45;92.73;100818.84;4923166;29;20225;-73
2022/09/30 04:31:04;;;;;;;15.18;9.65;;;;;;;3.46;93.11;100821.50;4913150;29;20151;-73
2022/09/30 04:33:30;;;;;;;13.45;9.25;;;;;;;3.43;92.99;100820.75;4929371;29;20032;-73
2022/09/30 04:35:57;;;;;;;14.73;9.75;;;;;;;3.41;92.81;100819.94;4931715;29;20039;-73
2022/09/30 04:38:23;;;;;;;13.52;7.30;;;;;;;3.37;92.92;100808.44;4931748;29;20483;-73
2022/09/30 04:40:50;;;;;;;16.70;8.52;;;;;;;3.36;93.14;100795.03;4929900;29;20098;-74
2022/09/30 04:43:19;;;;;;;13.27;8.98;;;;;;;3.35;93.18;100804.94;4930537;29;20435;-72
2022/09/30 04:45:45;;;;;;;12.43;8.25;;;;;;;3.35;93.16;100813.00;4932367;29;20364;-73
2022/09/30 04:48:13;;;;;;;11.02;7.85;;;;;;;3.32;92.97;100814.00;4930790;29;20066;-73
2022/09/30 04:50:40;;;;;;;16.30;8.43;;;;;;;3.31;92.92;100811.38;4913935;29;20131;-73
2022/09/30 04:53:07;;;;;;;10.77;7.55;;;;;;;3.30;92.63;100817.69;4912840;29;20032;-73
2022/09/30 04:55:33;;;;;;;10.95;7.53;;;;;;;3.29;92.72;100818.66;4929873;29;20059;-74
2022/09/30 04:57:58;;;;;;;8.55;6.82;;;;;;;3.25;92.23;100823.28;4926612;29;20397;-73
2022/09/30 05:00:24;;;;;;;11.25;7.38;;;;;;;3.23;92.45;100827.84;4927120;29;20517;-73
2022/09/30 05:02:50;;;;;;;9.20;6.55;;;;;;;3.24;92.56;100831.41;4930460;29;20031;-73
2022/09/30 05:05:16;;;;;;;11.73;6.88;;;;;;;3.21;92.93;100839.59;4928609;29;20051;-73
2022/09/30 05:07:42;;;;;;;12.18;7.97;;;;;;;3.18;93.04;100834.38;4931221;29;20027;-73
2022/09/30 05:10:10;;;;;;;11.75;7.90;;;;;;;3.18;92.99;100837.06;4934314;29;20051;-73
2022/09/30 05:12:36;;;;;;;11.82;7.57;;;;;;;3.17;93.00;100838.88;4929736;29;20035;-73
2022/09/30 05:15:05;;;;;;;12.68;7.72;;;;;;;3.17;93.17;100840.66;4933831;29;20047;-73
2022/09/30 05:17:31;;;;;;;11.25;6.90;;;;;;;3.14;92.99;100841.69;4934384;29;20463;-73
2022/09/30 05:19:56;;;;;;;12.27;7.03;;;;;;;3.11;92.80;100841.78;4934634;29;20071;-73
2022/09/30 05:22:23;;;;;;;11.15;6.43;;;;;;;3.11;92.95;100840.94;4935469;29;20047;-73
2022/09/30 05:24:52;;;;;;;8.73;6.75;;;;;;;3.08;93.03;100839.25;4934808;29;20433;-72
2022/09/30 05:27:24;;;;;;;12.98;7.47;;;;;;;3.10;93.47;100847.25;4933862;29;20487;-72
2022/09/30 05:29:49;;;;;;;12.07;7.85;;;;;;;3.07;93.71;100842.84;4933905;29;20042;-72
2022/09/30 05:32:15;;;;;;;11.77;8.50;;;;;;;3.09;93.66;100851.75;4935263;29;20023;-72
2022/09/30 05:34:40;;;;;;;17.08;9.60;;;;;;;3.11;94.08;100841.78;4918425;29;20079;-73
2022/09/30 05:37:08;;;;;;;14.82;9.73;;;;;;;3.09;94.07;100849.06;4920824;29;20036;-72
2022/09/30 05:39:34;;;;;;;13.40;8.65;;;;;;;3.09;93.91;100854.44;4932574;29;20078;-72
2022/09/30 05:41:59;;;;;;;11.02;8.25;;;;;;;3.09;93.43;100858.94;4934461;29;20051;-72
2022/09/30 05:44:24;;;;;;;12.50;8.45;;;;;;;3.07;93.29;100870.59;4934461;29;20036;-72
2022/09/30 05:46:50;;;;;;;14.73;7.88;;;;;;;3.09;93.46;100875.06;4933663;29;20078;-73
2022/09/30 05:49:15;;;;;;;11.80;7.88;;;;;;;3.06;93.25;100879.63;4924229;29;20031;-72
2022/09/30 05:51:41;;;;;;;12.90;8.20;;;;;;;3.00;93.29;100877.19;4935320;29;20542;-72
2022/09/30 05:54:08;;;;;;;11.90;8.32;;;;;;;3.06;93.62;100882.28;4923705;29;20031;-73
2022/09/30 05:56:33;;;;;;;15.30;9.10;;;;;;;3.02;94.09;100871.72;4927532;29;20082;-73
2022/09/30 05:58:59;;;;;;;16.85;9.02;;;;;;;3.11;93.93;100884.78;4913654;29;20517;-72
2022/09/30 06:01:25;;;;;;;16.52;10.38;;;;;;;3.11;94.41;100884.78;4915759;29;20036;-72
2022/09/30 06:03:51;;;;;;;17.40;9.48;;;;;;;3.14;94.52;100894.56;4922682;29;20026;-72
2022/09/30 06:06:17;;;;;;;21.80;12.77;;;;;;;3.17;95.29;100895.31;4898471;29;20122;-72
2022/09/30 06:08:43;;;;;;;19.90;10.93;;;;;;;3.22;94.75;100904.06;4921780;29;20452;-72
2022/09/30 06:11:22;;;;;;;20.00;11.10;;;;;;;3.26;95.10;100900.31;4933263;29;20069;-72
2022/09/30 06:13:48;;;;;;;18.63;10.75;;;;;;;3.27;95.16;100904.75;4934297;29;20209;-72
2022/09/30 06:16:15;;;;;;;17.00;10.13;;;;;;;3.30;95.25;100909.09;4933130;29;20078;-72
2022/09/30 06:18:41;;;;;;;20.42;12.15;;;;;;;3.35;95.68;100909.78;4925393;29;20031;-72
2022/09/30 06:21:08;;;;;;;17.08;11.48;;;;;;;3.40;95.85;100909.59;4933116;29;20036;-73
2022/09/30 06:23:35;;;;;;;19.25;11.73;;;;;;;3.44;96.03;100920.16;4933782;29;20110;-72
2022/09/30 06:26:04;;;;;;;20.05;11.80;;;;;;;3.48;96.04;100915.53;4933030;29;20066;-72
2022/09/30 06:28:33;;;;;;;22.15;13.23;;;;;;;3.54;96.86;100915.28;4933613;29;20040;-72
2022/09/30 06:30:58;;;;;;;25.77;14.32;;;;;;;3.61;97.38;100923.97;4932880;29;20454;-73
2022/09/30 06:33:23;;;;;;;26.55;14.88;;;;;;;3.70;97.86;100921.75;4914305;29;20127;-72
2022/09/30 06:35:49;;;;;;;25.95;15.23;;;;;;;3.76;98.28;100915.25;4913581;29;20052;-72
2022/09/30 06:38:14;;;;;;;27.05;16.65;;;;;;;3.81;98.57;100915.91;4914714;29;20439;-72
2022/09/30 06:40:41;;;;;;;33.72;18.48;;;;;;;3.89;98.95;100912.91;4915042;29;20029;-73
2022/09/30 06:43:07;;;;;;;31.15;18.02;;;;;;;3.98;99.15;100907.97;4915318;29;20098;-72
2022/09/30 06:45:34;;;;;;;39.00;20.67;;;;;;;4.13;100.00;100903.72;4933928;29;20031;-73
2022/09/30 06:48:02;;;;;;;33.40;17.98;;;;;;;4.20;100.00;100907.91;4933117;29;20609;-73
2022/09/30 06:50:29;;;;;;;37.03;20.48;;;;;;;4.30;100.00;100908.38;4933344;29;20039;-72
2022/09/30 06:52:59;;;;;;;34.63;20.63;;;;;;;4.31;100.00;100902.91;4932338;29;20079;-73
2022/09/30 06:55:26;;;;;;;34.38;18.52;;;;;;;4.40;100.00;100909.69;4927075;29;20071;-72
2022/09/30 06:57:53;;;;;;;38.63;21.02;;;;;;;4.51;100.00;100915.44;4933675;29;20115;-72
2022/09/30 07:00:18;;;;;;;40.45;23.48;;;;;;;4.72;100.00;100907.31;4932269;29;20098;-72
2022/09/30 07:02:44;;;;;;;37.85;21.58;;;;;;;4.79;100.00;100912.31;4931440;29;20494;-73
2022/09/30 07:05:09;;;;;;;36.42;22.13;;;;;;;4.83;100.00;100908.53;4933074;29;20043;-72
2022/09/30 07:07:35;;;;;;;41.80;23.52;;;;;;;4.91;100.00;100912.72;4932158;29;20455;-73
2022/09/30 07:10:03;;;;;;;33.58;21.30;;;;;;;4.94;100.00;100917.94;4928556;29;20491;-73
2022/09/30 07:12:29;;;;;;;41.13;23.83;;;;;;;4.98;100.00;100911.44;4913048;29;20518;-73
2022/09/30 07:14:58;;;;;;;38.67;23.88;;;;;;;5.09;100.00;100912.69;4921028;29;20039;-73
2022/09/30 07:17:24;;;;;;;42.15;24.38;;;;;;;5.14;100.00;100914.28;4932822;29;20039;-72
2022/09/30 07:19:51;;;;;;;41.28;25.00;;;;;;;5.22;100.00;100912.97;4930194;29;20442;-72
2022/09/30 07:22:35;;;;;;;49.65;25.98;;;;;;;5.31;100.00;100907.09;4933306;29;20042;-73
2022/09/30 07:25:02;;;;;;;45.67;26.83;;;;;;;5.45;100.00;100910.94;4917667;29;20062;-72
2022/09/30 07:27:31;;;;;;;47.30;27.10;;;;;;;5.50;100.00;100909.78;4922360;29;20044;-73
2022/09/30 07:29:58;;;;;;;45.85;27.08;;;;;;;5.59;100.00;100920.06;4931459;29;20440;-73
2022/09/30 07:32:24;;;;;;;45.22;26.90;;;;;;;5.67;100.00;100922.38;4927205;29;20463;-73
2022/09/30 07:34:50;;;;;;;51.13;28.38;;;;;;;5.76;100.00;100926.44;4926657;29;20040;-73
2022/09/30 07:37:17;;;;;;;49.25;28.90;;;;;;;5.86;100.00;100927.72;4913890;29;20032;-72
2022/09/30 07:39:45;;;;;;;53.80;30.95;;;;;;;5.95;100.00;100927.28;4914186;29;20062;-73
2022/09/30 07:42:12;;;;;;;56.50;30.25;;;;;;;6.06;100.00;100930.31;4914627;29;20051;-73
2022/09/30 07:44:40;;;;;;;55.97;32.03;;;;;;;6.16;100.00;100932.53;4913849;29;20110;-73
2022/09/30 07:47:08;;;;;;;56.38;31.60;;;;;;;6.22;100.00;100927.66;4915270;29;20044;-73
2022/09/30 07:49:34;;;;;;;54.92;29.88;;;;;;;6.32;100.00;100922.63;4925088;29;20067;-73
2022/09/30 07:52:00;;;;;;;51.00;29.13;;;;;;;6.40;100.00;100915.00;4932694;29;20031;-73
2022/09/30 07:54:30;;;;;;;60.25;29.73;;;;;;;6.47;100.00;100913.69;4932624;29;20045;-73
2022/09/30 07:56:56;;;;;;;51.75;28.63;;;;;;;6.57;100.00;100925.75;4932415;29;20522;-73
2022/09/30 07:59:22;;;;;;;52.38;29.10;;;;;;;6.61;100.00;100930.03;4932073;29;20114;-73
2022/09/30 08:01:48;;;;;;;50.53;27.38;;;;;;;6.71;100.00;100918.72;4932375;29;20475;-73
2022/09/30 08:04:16;;;;;;;55.30;28.40;;;;;;;6.77;100.00;100918.41;4920001;29;20036;-73
2022/09/30 08:06:44;;;;;;;53.55;28.23;;;;;;;6.90;100.00;100917.63;4928325;29;20178;-73
2022/09/30 08:09:11;;;;;;;52.47;28.20;;;;;;;7.05;100.00;100917.72;4930844;29;20078;-73
2022/09/30 08:11:37;;;;;;;47.85;26.27;;;;;;;7.14;100.00;100917.19;4931174;29;20066;-73
2022/09/30 08:14:03;;;;;;;49.53;25.73;;;;;;;7.25;100.00;100921.97;4932237;29;20028;-73
2022/09/30 08:16:29;;;;;;;41.67;24.92;;;;;;;7.30;100.00;100904.50;4917849;29;20087;-74
2022/09/30 08:18:55;;;;;;;43.90;25.58;;;;;;;7.37;100.00;100908.63;4920052;29;20083;-73
2022/09/30 08:21:21;;;;;;;43.70;25.60;;;;;;;7.48;100.00;100923.38;4913289;29;20079;-73
2022/09/30 08:23:47;;;;;;;42.78;25.75;;;;;;;7.58;100.00;100920.00;4927185;29;20043;-72
2022/09/30 08:26:14;;;;;;;45.65;25.63;;;;;;;7.66;100.00;100914.16;4930763;29;20398;-73
2022/09/30 08:28:39;;;;;;;45.70;27.02;;;;;;;7.79;100.00;100920.59;4932247;29;20498;-73
2022/09/30 08:31:07;;;;;;;50.25;28.13;;;;;;;7.93;100.00;100928.75;4931581;29;20110;-73
2022/09/30 08:33:33;;;;;;;43.10;26.20;;;;;;;8.03;100.00;100920.09;4923963;29;20032;-73
2022/09/30 08:36:11;;;;;;;45.40;28.63;;;;;;;8.09;100.00;100926.00;4930322;29;20047;-74
2022/09/30 08:38:37;;;;;;;42.03;25.92;;;;;;;8.19;100.00;100920.88;4931970;29;20044;-73
2022/09/30 08:41:24;;;;;;;39.97;25.15;;;;;;;8.27;100.00;100915.88;4931898;29;20028;-73
2022/09/30 08:44:08;;;;;;;40.85;25.55;;;;;;;8.37;100.00;100919.78;4917702;29;20036;-72
2022/09/30 08:46:42;;;;;;;44.70;27.00;;;;;;;8.52;100.00;100923.38;4913079;29;20186;-73
2022/09/30 08:49:24;;;;;;;43.80;26.40;;;;;;;8.65;100.00;100924.34;4921953;29;20035;-73
2022/09/30 08:51:52;;;;;;;40.90;23.80;;;;;;;8.74;100.00;100924.72;4912880;29;20092;-73
2022/09/30 08:54:21;;;;;;;38.53;24.27;;;;;;;8.82;100.00;100934.13;4912825;29;20039;-73
2022/09/30 08:56:47;;;;;;;36.13;21.73;;;;;;;8.91;100.00;100938.97;4922272;29;20052;-73
2022/09/30 08:59:31;;;;;;;35.78;20.67;;;;;;;9.00;99.80;100932.09;4911677;29;20092;-74
2022/09/30 09:02:23;;;;;;;35.92;20.98;;;;;;;9.12;98.86;100938.53;4914630;29;20040;-74
2022/09/30 09:04:53;;;;;;;35.83;21.23;;;;;;;9.21;99.26;100935.22;4923988;29;20075;-74
2022/09/30 09:07:27;;;;;;;39.20;22.77;;;;;;;9.30;98.92;100937.34;4931564;29;20044;-73
2022/09/30 09:10:36;;;;;;;33.97;21.17;;;;;;;9.42;98.97;100912.09;4931543;29;20102;-73
2022/09/30 09:13:32;;;;;;;31.98;18.35;;;;;;;9.55;98.46;100920.28;4862905;29;20401;-73
2022/09/30 09:16:21;;;;;;;31.25;18.00;;;;;;;9.68;98.91;100923.91;4885739;29;20037;-73
2022/09/30 09:19:05;;;;;;;30.15;17.75;;;;;;;9.86;98.53;100932.69;4898394;29;20511;-73
2022/09/30 09:21:55;;;;;;;29.27;17.40;;;;;;;10.03;98.50;100925.22;4931590;29;20380;-73
2022/09/30 09:24:24;;;;;;;27.20;17.20;;;;;;;10.17;97.19;100925.16;4931482;29;20459;-74
2022/09/30 09:26:52;;;;;;;28.35;18.27;;;;;;;10.27;96.71;100920.84;4929611;29;20028;-74
2022/09/30 09:29:57;;;;;;;30.35;17.23;;;;;;;10.36;97.10;100927.47;4930095;29;20492;-74
2022/09/30 09:32:25;;;;;;;24.00;16.33;;;;;;;10.50;95.62;100935.53;4924474;29;20031;-74
2022/09/30 09:34:58;;;;;;;23.70;16.35;;;;;;;10.63;95.20;100932.78;4919926;29;20055;-74
2022/09/30 09:40:29;;;;;;;23.30;16.05;;;;;;;10.92;95.40;100936.16;4912426;29;20474;-73
2022/09/30 09:43:30;;;;;;;25.83;16.05;;;;;;;11.07;96.11;100926.88;4916251;29;20028;-74
2022/09/30 09:46:26;;;;;;;19.95;14.23;;;;;;;11.26;94.35;100929.09;4930885;29;20479;-74
2022/09/30 09:49:14;;;;;;;20.35;13.63;;;;;;;11.49;92.99;100933.72;4914605;29;20036;-74
2022/09/30 09:51:46;;;;;;;20.10;13.13;;;;;;;11.68;91.93;100925.00;4930171;29;20487;-74
2022/09/30 09:54:14;;;;;;;20.50;13.73;;;;;;;11.87;91.78;100932.69;4932952;29;20066;-74
2022/09/30 09:56:40;;;;;;;17.23;11.90;;;;;;;12.05;89.87;100919.50;4934589;29;20103;-74
2022/09/30 09:59:12;;;;;;;18.52;12.00;;;;;;;12.27;90.35;100913.25;4920424;29;20044;-74
2022/09/30 10:01:48;;;;;;;16.08;11.07;;;;;;;12.31;89.04;100917.47;4914394;29;20103;-74
2022/09/30 10:04:25;;;;;;;16.20;11.23;;;;;;;12.40;87.04;100921.31;4923576;29;20036;-74
2022/09/30 10:07:11;;;;;;;17.67;12.27;;;;;;;12.44;88.07;100915.50;4930050;29;20047;-74
2022/09/30 10:09:39;;;;;;;20.20;10.80;;;;;;;12.51;86.05;100919.50;4916774;29;20135;-74
2022/09/30 10:12:04;;;;;;;13.85;10.48;;;;;;;12.64;85.61;100913.06;4932165;29;20110;-74
2022/09/30 10:14:30;;;;;;;12.80;8.98;;;;;;;12.80;85.53;100916.28;4932947;29;20467;-74
2022/09/30 10:17:00;;;;;;;14.38;9.20;;;;;;;12.98;84.87;100925.72;4928651;29;20119;-75
2022/09/30 10:19:29;;;;;;;16.95;9.95;;;;;;;13.23;83.30;100915.53;4937282;29;20390;-74
2022/09/30 10:22:07;;;;;;;12.30;8.60;;;;;;;13.39;82.77;100929.69;4924758;29;20050;-74
2022/09/30 10:24:34;;;;;;;13.48;9.60;;;;;;;13.59;82.00;100932.63;4932486;29;20106;-74
2022/09/30 10:26:59;;;;;;;14.88;8.60;;;;;;;13.77;80.54;100928.34;4930726;29;20529;-74
2022/09/30 10:29:30;;;;;;;11.95;9.15;;;;;;;13.98;80.63;100923.75;4930877;29;20120;-75
2022/09/30 10:31:58;;;;;;;12.10;8.82;;;;;;;14.40;84.38;100923.78;4929225;29;20395;-74
2022/09/30 10:34:43;;;;;;;11.32;8.50;;;;;;;14.60;79.80;100922.09;4927487;29;20582;-74
2022/09/30 10:37:13;;;;;;;12.32;8.30;;;;;;;14.91;77.26;100924.81;4932536;29;20523;-74
2022/09/30 10:39:41;;;;;;;11.38;8.18;;;;;;;15.14;78.18;100931.84;4930479;29;20051;-74
2022/09/30 10:42:15;;;;;;;11.23;7.32;;;;;;;15.31;75.92;100928.44;4930802;29;20027;-75
2022/09/30 10:44:48;;;;;;;8.93;6.53;;;;;;;15.28;75.04;100919.63;4931318;29;20515;-75
2022/09/30 10:47:16;;;;;;;10.85;7.30;;;;;;;15.50;71.73;100929.50;4927881;29;20483;-75
2022/09/30 10:49:52;;;;;;;10.45;7.35;;;;;;;15.62;73.74;100922.91;4932608;29;20039;-75
2022/09/30 10:52:27;;;;;;;9.07;6.65;;;;;;;15.78;72.98;100922.38;4924576;29;20114;-75
2022/09/30 10:54:54;;;;;;;9.32;6.65;;;;;;;15.87;67.86;100929.75;4914645;29;20067;-75
2022/09/30 10:57:30;;;;;;;9.10;5.00;;;;;;;16.13;71.54;100930.00;4932257;29;20169;-75
2022/09/30 11:00:12;;;;;;;8.48;5.65;;;;;;;16.17;69.78;100930.59;4932087;29;20205;-75
2022/09/30 11:02:53;;;;;;;9.73;5.50;;;;;;;16.07;71.86;100930.59;4932640;29;20071;-75
2022/09/30 11:05:29;;;;;;;4.35;3.92;;;;;;;16.03;68.58;100931.91;4926623;29;20570;-74
2022/09/30 11:08:29;;;;;;;4.25;3.83;;;;;;;16.12;69.50;100916.44;4926394;29;20044;-75
2022/09/30 11:11:10;;;;;;;8.45;4.22;;;;;;;16.41;68.30;100910.91;4913117;29;20039;-75
2022/09/30 11:14:03;;;;;;;7.13;3.83;;;;;;;16.61;69.77;100909.88;4928080;29;20475;-74
2022/09/30 11:16:34;;;;;;;;;;;;;;;16.85;72.26;100908.53;4932392;29;20051;-74
2022/09/30 11:19:20;;;;;;;4.95;4.15;;;;;;;17.03;69.38;100913.09;4923242;29;19918;-75
2022/09/30 11:22:18;;;;;;;4.50;3.47;;;;;;;17.28;67.44;100910.66;4931916;29;20044;-74
2022/09/30 11:24:47;;;;;;;5.75;3.17;;;;;;;17.42;63.75;100907.38;4916496;29;20105;-75
2022/09/30 11:27:43;;;;;;;3.97;2.95;;;;;;;17.62;65.74;100913.59;4933292;29;20034;-75
2022/09/30 11:30:35;;;;;;;4.85;3.55;;;;;;;17.86;66.20;100913.06;4914164;29;20158;-75
2022/09/30 11:33:43;;;;;;;5.03;3.40;;;;;;;17.86;66.82;100913.06;4914761;29;20428;-75
2022/09/30 11:36:50;;;;;;;4.15;3.45;;;;;;;17.66;64.95;100901.28;4914498;29;20099;-75
2022/09/30 11:39:30;;;;;;;4.47;3.17;;;;;;;17.45;65.28;100900.72;4933162;29;20047;-73
2022/09/30 11:42:17;;;;;;;4.50;3.67;;;;;;;17.57;66.56;100897.56;4932073;29;20044;-74
2022/09/30 11:44:44;;;;;;;4.22;3.65;;;;;;;17.57;60.87;100893.94;4933209;29;20055;-75
2022/09/30 11:47:32;;;;;;;3.40;3.10;;;;;;;17.64;63.14;100891.47;4932333;29;20106;-75
2022/09/30 11:50:22;;;;;;;3.78;2.85;;;;;;;17.34;63.78;100885.28;4927875;29;20794;-75